Wilson Algeciras — 9HA2471 — position and weather

sailwx.info

Track history (hours):
 
Tides and Currents Weather Stations Pressure Air Temp Water Temp Dewpoint Dewpoint Depression Visibility Wind Speed Wind Dir Waves Ship Positions

Wilson Algeciras

Last reported at 2017-Jun-25 06:58 UTC. Time now 2017-Jun-25 07:15 UTC.
Position N 49°28' W 000°06'.

Length 88 m; draft 3 m.

Type: Ship. MMSI: 248689000.

Date/timePositionNaut miles runAvg speedWind from/ knotsBaromVisibWave heightAir tempDewpointWater temp
2017-Jun-25 06:58N 49°28' W 000°06'0 0.0
2017-Jun-25 06:28N 49°28' W 000°06'0 0.0
2017-Jun-25 05:58N 49°28' W 000°06'0 0.1
2017-Jun-25 05:28N 49°28' W 000°06'0 0.1
2017-Jun-25 04:58N 49°28' W 000°07'0 0.1
2017-Jun-25 04:28N 49°28' W 000°07'0 0.1
2017-Jun-25 03:58N 49°28' W 000°07'0 0.0
2017-Jun-25 03:28N 49°28' W 000°07'0 0.0
2017-Jun-25 02:58N 49°28' W 000°07'0 0.2
2017-Jun-25 02:28N 49°28' W 000°06'0 0.0
2017-Jun-25 01:58N 49°28' W 000°06'0 0.0
2017-Jun-25 01:28N 49°28' W 000°06'0 0.0
2017-Jun-25 00:58N 49°28' W 000°06'0 0.0
2017-Jun-25 00:28N 49°28' W 000°06'0 0.0
2017-Jun-24 23:58N 49°28' W 000°06'0 0.0
2017-Jun-24 23:28N 49°28' W 000°06'0 0.0
2017-Jun-24 22:58N 49°28' W 000°06'0 0.0
2017-Jun-24 22:28N 49°28' W 000°06'0 0.0
2017-Jun-24 21:58N 49°28' W 000°06'0 0.0
2017-Jun-24 21:28N 49°28' W 000°06'0 0.0
2017-Jun-24 20:58N 49°28' W 000°06'0 0.0
2017-Jun-24 20:28N 49°28' W 000°06'0 0.1
2017-Jun-24 19:58N 49°28' W 000°06'0 0.1
2017-Jun-24 19:28N 49°28' W 000°06'0 0.0
2017-Jun-24 18:58N 49°28' W 000°06'0 0.1
2017-Jun-24 18:28N 49°28' W 000°07'0 0.1
2017-Jun-24 17:58N 49°28' W 000°07'0 0.1
2017-Jun-24 17:28N 49°28' W 000°07'0 0.0
2017-Jun-24 16:58N 49°28' W 000°07'1 1.7
2017-Jun-24 16:30N 49°28' W 000°08'4 7.0
2017-Jun-24 16:01N 49°30' W 000°12'4 8.9
2017-Jun-24 15:30N 49°32' W 000°18'4 8.5
2017-Jun-24 15:00N 49°34' W 000°24'8 8.2
2017-Jun-24 14:00N 49°38' W 000°35'4 7.8
2017-Jun-24 13:30N 49°40' W 000°40'4 7.6
2017-Jun-24 13:00N 49°42' W 000°46'4 7.8
2017-Jun-24 12:30N 49°44' W 000°51'4 8.0
2017-Jun-24 12:00N 49°46' W 000°56'4 8.1
2017-Jun-24 11:30N 49°47' W 001°02'4 8.3
2017-Jun-24 11:00N 49°49' W 001°08'6111.4
2017-Jun-24 05:38N 49°49' W 002°43'111.1
2017-Jun-24 05:30N 49°49' W 002°45'510.8
2017-Jun-24 05:01N 49°48' W 002°53'510.3
2017-Jun-24 04:29N 49°47' W 003°01'510.3
2017-Jun-24 04:00N 49°47' W 003°09'5 9.5
2017-Jun-24 03:31N 49°47' W 003°16'5 9.0
2017-Jun-24 03:00N 49°46' W 003°23'4 8.6
2017-Jun-24 02:31N 49°46' W 003°30'4 8.6
2017-Jun-24 02:00N 49°46' W 003°36'133 8.7
2017-Jun-23 10:37N 49°55' W 007°03'1 8.8
2017-Jun-23 10:28N 49°56' W 007°04'6 9.0
2017-Jun-23 09:45N 50°00' W 007°12'3 8.7
2017-Jun-23 09:25N 50°02' W 007°15'5 8.8
2017-Jun-23 08:48N 50°06' W 007°21'3 8.8
2017-Jun-23 08:30N 50°08' W 007°25'5 9.3
2017-Jun-23 07:55N 50°11' W 007°31'5 8.9
2017-Jun-23 07:24N 50°14' W 007°37'4 9.2
2017-Jun-23 07:01N 50°16' W 007°41'5 9.2
2017-Jun-23 06:30N 50°19' W 007°47'5 9.3
2017-Jun-23 05:58N 50°23' W 007°53'4 9.6
2017-Jun-23 05:31N 50°25' W 007°58'5 9.7
2017-Jun-23 04:57N 50°29' W 008°05'5 9.9
2017-Jun-23 04:24N 50°32' W 008°11'7 9.8
2017-Jun-23 03:43N 50°37' W 008°19'4 9.4
2017-Jun-23 03:20N 50°39' W 008°24'4 9.4
2017-Jun-23 02:54N 50°42' W 008°28'28 9.4
2017-Jun-22 23:53N 50°60' W 009°03'4 9.3
2017-Jun-22 23:30N 51°02' W 009°07'5 9.3
2017-Jun-22 23:01N 51°05' W 009°13'5 9.3
2017-Jun-22 22:31N 51°08' W 009°19'5 9.4
2017-Jun-22 22:01N 51°11' W 009°24'5 9.5
2017-Jun-22 21:31N 51°14' W 009°30'5 9.3
2017-Jun-22 21:01N 51°17' W 009°36'5 9.0
2017-Jun-22 20:31N 51°20' W 009°42'5 9.1
2017-Jun-22 20:01N 51°23' W 009°47'5 9.2
2017-Jun-22 19:31N 51°26' W 009°53'5 9.6
2017-Jun-22 19:00N 51°30' W 009°54'5 9.0
2017-Jun-22 18:30N 51°34' W 009°50'5 9.7
2017-Jun-22 18:00N 51°38' W 009°46'4 7.9
2017-Jun-22 17:30N 51°39' W 009°52'2 3.0
2017-Jun-22 17:00N 51°39' W 009°54'0 0.0
2017-Jun-22 16:30N 51°39' W 009°54'0 0.0
2017-Jun-22 16:00N 51°39' W 009°54'0 0.0
2017-Jun-22 15:30N 51°39' W 009°54'0 0.0
2017-Jun-22 14:57N 51°39' W 009°54'0 0.0
2017-Jun-22 14:27N 51°39' W 009°54'0 0.0
2017-Jun-22 12:45N 51°39' W 009°54'0 0.0
2017-Jun-22 12:21N 51°39' W 009°54'0 0.0
2017-Jun-22 11:57N 51°39' W 009°54'0 0.0
2017-Jun-22 10:42N 51°39' W 009°54'0 0.0
2017-Jun-22 10:27N 51°39' W 009°54'0 0.0
2017-Jun-22 10:00N 51°39' W 009°54'0 0.0
2017-Jun-22 09:21N 51°39' W 009°54'0 0.0
2017-Jun-22 09:00N 51°39' W 009°54'0 0.0
2017-Jun-22 08:24N 51°39' W 009°54'0 0.0
2017-Jun-22 07:51N 51°39' W 009°54'0 0.0
2017-Jun-22 07:30N 51°39' W 009°54'0 0.0
2017-Jun-22 06:54N 51°39' W 009°54'0 0.0
2017-Jun-22 06:27N 51°39' W 009°54'0 0.0
2017-Jun-22 05:54N 51°39' W 009°54'0 0.0
2017-Jun-22 05:21N 51°39' W 009°54'0 0.0
2017-Jun-22 04:51N 51°39' W 009°54'0 0.0
2017-Jun-22 04:30N 51°39' W 009°54'0 0.0
2017-Jun-22 03:54N 51°39' W 009°54'0 0.0
2017-Jun-22 00:42N 51°39' W 009°54'0 0.0
2017-Jun-22 00:18N 51°39' W 009°54'0 0.0
2017-Jun-22 00:00N 51°39' W 009°54'0 0.0
2017-Jun-21 23:30N 51°39' W 009°54'0 0.0
2017-Jun-21 23:00N 51°39' W 009°54'0 0.0
2017-Jun-21 22:30N 51°39' W 009°54'0 0.0
2017-Jun-21 21:57N 51°39' W 009°54'0 0.0
2017-Jun-21 21:24N 51°39' W 009°54'0 0.0
2017-Jun-21 20:57N 51°39' W 009°54'0 0.0
2017-Jun-21 20:30N 51°39' W 009°54'0 0.0
2017-Jun-21 19:54N 51°39' W 009°54'0 0.0
2017-Jun-21 19:21N 51°39' W 009°54'0 0.0
2017-Jun-21 18:39N 51°39' W 009°54'0 0.0
2017-Jun-21 18:09N 51°39' W 009°54'0 0.0
2017-Jun-21 18:00N 51°39' W 009°54'0 0.0
2017-Jun-21 17:00N 51°39' W 009°54'0 0.0
2017-Jun-21 16:21N 51°39' W 009°54'0 0.0
2017-Jun-21 15:57N 51°39' W 009°54'0 0.0
2017-Jun-21 15:30N 51°39' W 009°54'0 0.1
2017-Jun-21 14:49N 51°39' W 009°54'1 4.1
2017-Jun-21 14:29N 51°38' W 009°55'7 7.6
2017-Jun-21 13:30N 51°34' W 010°05'5 9.0
2017-Jun-21 12:56N 51°33' W 010°13'4 8.4
2017-Jun-21 12:31N 51°34' W 010°19'42 9.0
2017-Jun-21 07:53N 52°08' W 010°57'  
Track history (hours):
 
Tides and Currents Weather Stations Pressure Air Temp Water Temp Dewpoint Dewpoint Depression Visibility Wind Speed Wind Dir Waves Ship Positions

Wilson Algeciras

Last reported at 2017-Jun-25 06:58 UTC. Time now 2017-Jun-25 07:15 UTC.
Position N 49°28' W 000°06'.

Length 88 m; draft 3 m.

Type: Ship. MMSI: 248689000.

Date/timePositionNaut miles runAvg speedWind from/ knotsBaromVisibWave heightAir tempDewpointWater temp
2017-Jun-25 06:58N 49°28' W 000°06'0 0.0
2017-Jun-25 06:28N 49°28' W 000°06'0 0.0
2017-Jun-25 05:58N 49°28' W 000°06'0 0.1
2017-Jun-25 05:28N 49°28' W 000°06'0 0.1
2017-Jun-25 04:58N 49°28' W 000°07'0 0.1
2017-Jun-25 04:28N 49°28' W 000°07'0 0.1
2017-Jun-25 03:58N 49°28' W 000°07'0 0.0
2017-Jun-25 03:28N 49°28' W 000°07'0 0.0
2017-Jun-25 02:58N 49°28' W 000°07'0 0.2
2017-Jun-25 02:28N 49°28' W 000°06'0 0.0
2017-Jun-25 01:58N 49°28' W 000°06'0 0.0
2017-Jun-25 01:28N 49°28' W 000°06'0 0.0
2017-Jun-25 00:58N 49°28' W 000°06'0 0.0
2017-Jun-25 00:28N 49°28' W 000°06'0 0.0
2017-Jun-24 23:58N 49°28' W 000°06'0 0.0
2017-Jun-24 23:28N 49°28' W 000°06'0 0.0
2017-Jun-24 22:58N 49°28' W 000°06'0 0.0
2017-Jun-24 22:28N 49°28' W 000°06'0 0.0
2017-Jun-24 21:58N 49°28' W 000°06'0 0.0
2017-Jun-24 21:28N 49°28' W 000°06'0 0.0
2017-Jun-24 20:58N 49°28' W 000°06'0 0.0
2017-Jun-24 20:28N 49°28' W 000°06'0 0.1
2017-Jun-24 19:58N 49°28' W 000°06'0 0.1
2017-Jun-24 19:28N 49°28' W 000°06'0 0.0
2017-Jun-24 18:58N 49°28' W 000°06'0 0.1
2017-Jun-24 18:28N 49°28' W 000°07'0 0.1
2017-Jun-24 17:58N 49°28' W 000°07'0 0.1
2017-Jun-24 17:28N 49°28' W 000°07'0 0.0
2017-Jun-24 16:58N 49°28' W 000°07'1 1.7
2017-Jun-24 16:30N 49°28' W 000°08'4 7.0
2017-Jun-24 16:01N 49°30' W 000°12'4 8.9
2017-Jun-24 15:30N 49°32' W 000°18'4 8.5
2017-Jun-24 15:00N 49°34' W 000°24'8 8.2
2017-Jun-24 14:00N 49°38' W 000°35'4 7.8
2017-Jun-24 13:30N 49°40' W 000°40'4 7.6
2017-Jun-24 13:00N 49°42' W 000°46'4 7.8
2017-Jun-24 12:30N 49°44' W 000°51'4 8.0
2017-Jun-24 12:00N 49°46' W 000°56'4 8.1
2017-Jun-24 11:30N 49°47' W 001°02'4 8.3
2017-Jun-24 11:00N 49°49' W 001°08'6111.4
2017-Jun-24 05:38N 49°49' W 002°43'111.1
2017-Jun-24 05:30N 49°49' W 002°45'510.8
2017-Jun-24 05:01N 49°48' W 002°53'510.3
2017-Jun-24 04:29N 49°47' W 003°01'510.3
2017-Jun-24 04:00N 49°47' W 003°09'5 9.5
2017-Jun-24 03:31N 49°47' W 003°16'5 9.0
2017-Jun-24 03:00N 49°46' W 003°23'4 8.6
2017-Jun-24 02:31N 49°46' W 003°30'4 8.6
2017-Jun-24 02:00N 49°46' W 003°36'133 8.7
2017-Jun-23 10:37N 49°55' W 007°03'1 8.8
2017-Jun-23 10:28N 49°56' W 007°04'6 9.0
2017-Jun-23 09:45N 50°00' W 007°12'3 8.7
2017-Jun-23 09:25N 50°02' W 007°15'5 8.8
2017-Jun-23 08:48N 50°06' W 007°21'3 8.8
2017-Jun-23 08:30N 50°08' W 007°25'5 9.3
2017-Jun-23 07:55N 50°11' W 007°31'5 8.9
2017-Jun-23 07:24N 50°14' W 007°37'4 9.2
2017-Jun-23 07:01N 50°16' W 007°41'5 9.2
2017-Jun-23 06:30N 50°19' W 007°47'5 9.3
2017-Jun-23 05:58N 50°23' W 007°53'4 9.6
2017-Jun-23 05:31N 50°25' W 007°58'5 9.7
2017-Jun-23 04:57N 50°29' W 008°05'5 9.9
2017-Jun-23 04:24N 50°32' W 008°11'7 9.8
2017-Jun-23 03:43N 50°37' W 008°19'4 9.4
2017-Jun-23 03:20N 50°39' W 008°24'4 9.4
2017-Jun-23 02:54N 50°42' W 008°28'28 9.4
2017-Jun-22 23:53N 50°60' W 009°03'4 9.3
2017-Jun-22 23:30N 51°02' W 009°07'5 9.3
2017-Jun-22 23:01N 51°05' W 009°13'5 9.3
2017-Jun-22 22:31N 51°08' W 009°19'5 9.4
2017-Jun-22 22:01N 51°11' W 009°24'5 9.5
2017-Jun-22 21:31N 51°14' W 009°30'5 9.3
2017-Jun-22 21:01N 51°17' W 009°36'5 9.0
2017-Jun-22 20:31N 51°20' W 009°42'5 9.1
2017-Jun-22 20:01N 51°23' W 009°47'5 9.2
2017-Jun-22 19:31N 51°26' W 009°53'5 9.6
2017-Jun-22 19:00N 51°30' W 009°54'5 9.0
2017-Jun-22 18:30N 51°34' W 009°50'5 9.7
2017-Jun-22 18:00N 51°38' W 009°46'4 7.9
2017-Jun-22 17:30N 51°39' W 009°52'2 3.0
2017-Jun-22 17:00N 51°39' W 009°54'0 0.0
2017-Jun-22 16:30N 51°39' W 009°54'0 0.0
2017-Jun-22 16:00N 51°39' W 009°54'0 0.0
2017-Jun-22 15:30N 51°39' W 009°54'0 0.0
2017-Jun-22 14:57N 51°39' W 009°54'0 0.0
2017-Jun-22 14:27N 51°39' W 009°54'0 0.0
2017-Jun-22 12:45N 51°39' W 009°54'0 0.0
2017-Jun-22 12:21N 51°39' W 009°54'0 0.0
2017-Jun-22 11:57N 51°39' W 009°54'0 0.0
2017-Jun-22 10:42N 51°39' W 009°54'0 0.0
2017-Jun-22 10:27N 51°39' W 009°54'0 0.0
2017-Jun-22 10:00N 51°39' W 009°54'0 0.0
2017-Jun-22 09:21N 51°39' W 009°54'0 0.0
2017-Jun-22 09:00N 51°39' W 009°54'0 0.0
2017-Jun-22 08:24N 51°39' W 009°54'0 0.0
2017-Jun-22 07:51N 51°39' W 009°54'0 0.0
2017-Jun-22 07:30N 51°39' W 009°54'0 0.0
2017-Jun-22 06:54N 51°39' W 009°54'0 0.0
2017-Jun-22 06:27N 51°39' W 009°54'0 0.0
2017-Jun-22 05:54N 51°39' W 009°54'0 0.0
2017-Jun-22 05:21N 51°39' W 009°54'0 0.0
2017-Jun-22 04:51N 51°39' W 009°54'0 0.0
2017-Jun-22 04:30N 51°39' W 009°54'0 0.0
2017-Jun-22 03:54N 51°39' W 009°54'0 0.0
2017-Jun-22 00:42N 51°39' W 009°54'0 0.0
2017-Jun-22 00:18N 51°39' W 009°54'0 0.0
2017-Jun-22 00:00N 51°39' W 009°54'0 0.0
2017-Jun-21 23:30N 51°39' W 009°54'0 0.0
2017-Jun-21 23:00N 51°39' W 009°54'0 0.0
2017-Jun-21 22:30N 51°39' W 009°54'0 0.0
2017-Jun-21 21:57N 51°39' W 009°54'0 0.0
2017-Jun-21 21:24N 51°39' W 009°54'0 0.0
2017-Jun-21 20:57N 51°39' W 009°54'0 0.0
2017-Jun-21 20:30N 51°39' W 009°54'0 0.0
2017-Jun-21 19:54N 51°39' W 009°54'0 0.0
2017-Jun-21 19:21N 51°39' W 009°54'0 0.0
2017-Jun-21 18:39N 51°39' W 009°54'0 0.0
2017-Jun-21 18:09N 51°39' W 009°54'0 0.0
2017-Jun-21 18:00N 51°39' W 009°54'0 0.0
2017-Jun-21 17:00N 51°39' W 009°54'0 0.0
2017-Jun-21 16:21N 51°39' W 009°54'0 0.0
2017-Jun-21 15:57N 51°39' W 009°54'0 0.0
2017-Jun-21 15:30N 51°39' W 009°54'0 0.1
2017-Jun-21 14:49N 51°39' W 009°54'1 4.1
2017-Jun-21 14:29N 51°38' W 009°55'7 7.6
2017-Jun-21 13:30N 51°34' W 010°05'5 9.0
2017-Jun-21 12:56N 51°33' W 010°13'4 8.4
2017-Jun-21 12:31N 51°34' W 010°19'42 9.0
2017-Jun-21 07:53N 52°08' W 010°57'  

Dump ship's entire track history